sensor_id;sensor_type;location;lat;lon;timestamp;pressure;altitude;pressure_sealevel;temperature;humidity
43436;BME280;36399;51.444;-2.018;2023-03-12T00:01:38;99929.78;;;7.57;100.00
43436;BME280;36399;51.444;-2.018;2023-03-12T00:04:04;99937.69;;;7.62;100.00
43436;BME280;36399;51.444;-2.018;2023-03-12T00:06:30;99936.94;;;7.69;100.00
43436;BME280;36399;51.444;-2.018;2023-03-12T00:08:57;99939.59;;;7.72;100.00
43436;BME280;36399;51.444;-2.018;2023-03-12T00:11:23;99935.44;;;7.83;100.00
43436;BME280;36399;51.444;-2.018;2023-03-12T00:13:50;99934.63;;;7.85;100.00
43436;BME280;36399;51.444;-2.018;2023-03-12T00:16:17;99946.91;;;7.91;100.00
43436;BME280;36399;51.444;-2.018;2023-03-12T00:18:45;99945.22;;;7.96;100.00
43436;BME280;36399;51.444;-2.018;2023-03-12T00:21:12;99944.47;;;8.03;100.00
43436;BME280;36399;51.444;-2.018;2023-03-12T00:23:38;99945.28;;;8.01;100.00
43436;BME280;36399;51.444;-2.018;2023-03-12T00:26:10;99949.72;;;8.06;100.00
43436;BME280;36399;51.444;-2.018;2023-03-12T00:28:37;99937.59;;;8.11;100.00
43436;BME280;36399;51.444;-2.018;2023-03-12T00:31:15;99947.25;;;8.15;100.00
43436;BME280;36399;51.444;-2.018;2023-03-12T00:33:41;99948.06;;;8.13;100.00
43436;BME280;36399;51.444;-2.018;2023-03-12T00:36:07;99942.88;;;8.14;100.00
43436;BME280;36399;51.444;-2.018;2023-03-12T00:38:34;99943.78;;;8.18;100.00
43436;BME280;36399;51.444;-2.018;2023-03-12T00:41:00;99941.19;;;8.19;100.00
43436;BME280;36399;51.444;-2.018;2023-03-12T00:43:26;99939.44;;;8.18;100.00
43436;BME280;36399;51.444;-2.018;2023-03-12T00:45:52;99950.72;;;8.16;100.00
43436;BME280;36399;51.444;-2.018;2023-03-12T00:48:18;99936.81;;;8.18;100.00
43436;BME280;36399;51.444;-2.018;2023-03-12T00:50:44;99929.03;;;8.21;100.00
43436;BME280;36399;51.444;-2.018;2023-03-12T00:53:10;99933.41;;;8.22;100.00
43436;BME280;36399;51.444;-2.018;2023-03-12T00:55:36;99934.28;;;8.24;100.00
43436;BME280;36399;51.444;-2.018;2023-03-12T00:58:02;99929.09;;;8.26;100.00
43436;BME280;36399;51.444;-2.018;2023-03-12T01:00:28;99926.44;;;8.24;100.00
43436;BME280;36399;51.444;-2.018;2023-03-12T01:02:54;99926.50;;;8.28;100.00
43436;BME280;36399;51.444;-2.018;2023-03-12T01:05:20;99922.91;;;8.21;100.00
43436;BME280;36399;51.444;-2.018;2023-03-12T01:07:46;99921.97;;;8.14;100.00
43436;BME280;36399;51.444;-2.018;2023-03-12T01:10:13;99914.06;;;8.11;100.00
43436;BME280;36399;51.444;-2.018;2023-03-12T01:12:41;99918.41;;;8.11;100.00
43436;BME280;36399;51.444;-2.018;2023-03-12T01:15:08;99921.13;;;8.17;100.00
43436;BME280;36399;51.444;-2.018;2023-03-12T01:17:34;99913.13;;;8.06;100.00
43436;BME280;36399;51.444;-2.018;2023-03-12T01:20:00;99918.31;;;8.03;100.00
43436;BME280;36399;51.444;-2.018;2023-03-12T01:22:26;99919.19;;;8.04;100.00
43436;BME280;36399;51.444;-2.018;2023-03-12T01:24:52;99920.94;;;8.03;100.00
43436;BME280;36399;51.444;-2.018;2023-03-12T01:27:18;99909.56;;;8.01;100.00
43436;BME280;36399;51.444;-2.018;2023-03-12T01:29:45;99918.28;;;8.00;100.00
43436;BME280;36399;51.444;-2.018;2023-03-12T01:32:11;99920.88;;;8.00;100.00
43436;BME280;36399;51.444;-2.018;2023-03-12T01:34:37;99932.28;;;8.05;100.00
43436;BME280;36399;51.444;-2.018;2023-03-12T01:37:03;99927.94;;;8.06;100.00
43436;BME280;36399;51.444;-2.018;2023-03-12T01:39:29;99928.81;;;8.06;100.00
43436;BME280;36399;51.444;-2.018;2023-03-12T01:41:55;99925.41;;;8.12;100.00
43436;BME280;36399;51.444;-2.018;2023-03-12T01:44:21;99929.75;;;8.11;100.00
43436;BME280;36399;51.444;-2.018;2023-03-12T01:46:49;99916.59;;;8.04;100.00
43436;BME280;36399;51.444;-2.018;2023-03-12T01:49:25;99928.66;;;7.94;100.00
43436;BME280;36399;51.444;-2.018;2023-03-12T01:52:02;99916.34;;;7.87;100.00
43436;BME280;36399;51.444;-2.018;2023-03-12T01:54:36;99919.69;;;7.80;100.00
43436;BME280;36399;51.444;-2.018;2023-03-12T01:57:26;99915.13;;;7.67;100.00
43436;BME280;36399;51.444;-2.018;2023-03-12T01:59:59;99917.69;;;7.62;100.00
43436;BME280;36399;51.444;-2.018;2023-03-12T02:02:27;99912.53;;;7.67;100.00
43436;BME280;36399;51.444;-2.018;2023-03-12T02:05:02;99914.22;;;7.65;100.00
43436;BME280;36399;51.444;-2.018;2023-03-12T02:07:29;99919.41;;;7.62;100.00
43436;BME280;36399;51.444;-2.018;2023-03-12T02:09:55;99919.31;;;7.55;100.00
43436;BME280;36399;51.444;-2.018;2023-03-12T02:12:21;99918.44;;;7.55;100.00
43436;BME280;36399;51.444;-2.018;2023-03-12T02:14:47;99922.84;;;7.57;100.00
43436;BME280;36399;51.444;-2.018;2023-03-12T02:17:14;99917.38;;;7.42;100.00
43436;BME280;36399;51.444;-2.018;2023-03-12T02:19:59;99940.16;;;7.52;100.00
43436;BME280;36399;51.444;-2.018;2023-03-12T02:22:36;99942.06;;;7.63;100.00
43436;BME280;36399;51.444;-2.018;2023-03-12T02:25:21;99946.47;;;7.65;100.00
43436;BME280;36399;51.444;-2.018;2023-03-12T02:27:51;99946.50;;;7.68;100.00
43436;BME280;36399;51.444;-2.018;2023-03-12T02:30:17;99948.28;;;7.69;100.00
43436;BME280;36399;51.444;-2.018;2023-03-12T02:32:45;99954.47;;;7.76;100.00
43436;BME280;36399;51.444;-2.018;2023-03-12T02:35:15;99946.59;;;7.74;100.00
43436;BME280;36399;51.444;-2.018;2023-03-12T02:37:53;99941.34;;;7.73;100.00
43436;BME280;36399;51.444;-2.018;2023-03-12T02:40:26;99936.94;;;7.69;100.00
43436;BME280;36399;51.444;-2.018;2023-03-12T02:42:54;99932.53;;;7.65;100.00
43436;BME280;36399;51.444;-2.018;2023-03-12T02:45:20;99929.06;;;7.66;100.00
43436;BME280;36399;51.444;-2.018;2023-03-12T02:47:46;99926.34;;;7.59;100.00
43436;BME280;36399;51.444;-2.018;2023-03-12T02:50:12;99935.81;;;7.53;100.00
43436;BME280;36399;51.444;-2.018;2023-03-12T02:52:38;99945.25;;;7.43;100.00
43436;BME280;36399;51.444;-2.018;2023-03-12T02:55:05;99948.66;;;7.39;100.00
43436;BME280;36399;51.444;-2.018;2023-03-12T02:57:32;99953.81;;;7.36;100.00
43436;BME280;36399;51.444;-2.018;2023-03-12T02:59:58;99962.50;;;7.35;100.00
43436;BME280;36399;51.444;-2.018;2023-03-12T03:02:24;99978.25;;;7.40;100.00
43436;BME280;36399;51.444;-2.018;2023-03-12T03:04:50;99981.06;;;7.50;100.00
43436;BME280;36399;51.444;-2.018;2023-03-12T03:07:16;99991.53;;;7.52;100.00
43436;BME280;36399;51.444;-2.018;2023-03-12T03:09:42;100002.94;;;7.58;100.00
43436;BME280;36399;51.444;-2.018;2023-03-12T03:12:08;100001.25;;;7.60;100.00
43436;BME280;36399;51.444;-2.018;2023-03-12T03:14:33;100003.00;;;7.62;100.00
43436;BME280;36399;51.444;-2.018;2023-03-12T03:16:59;99993.47;;;7.64;100.00
43436;BME280;36399;51.444;-2.018;2023-03-12T03:19:25;99999.63;;;7.69;100.00
43436;BME280;36399;51.444;-2.018;2023-03-12T03:21:51;99996.16;;;7.70;100.00
43436;BME280;36399;51.444;-2.018;2023-03-12T03:24:17;99989.19;;;7.69;100.00
43436;BME280;36399;51.444;-2.018;2023-03-12T03:26:43;99987.44;;;7.68;100.00
43436;BME280;36399;51.444;-2.018;2023-03-12T03:29:09;99995.16;;;7.60;100.00
43436;BME280;36399;51.444;-2.018;2023-03-12T03:31:35;99994.09;;;7.50;100.00
43436;BME280;36399;51.444;-2.018;2023-03-12T03:34:01;99985.31;;;7.45;100.00
43436;BME280;36399;51.444;-2.018;2023-03-12T03:36:27;99986.25;;;7.49;100.00
43436;BME280;36399;51.444;-2.018;2023-03-12T03:38:53;99989.72;;;7.48;100.00
43436;BME280;36399;51.444;-2.018;2023-03-12T03:41:20;99989.75;;;7.49;100.00
43436;BME280;36399;51.444;-2.018;2023-03-12T03:43:47;99992.34;;;7.49;100.00
43436;BME280;36399;51.444;-2.018;2023-03-12T03:46:14;99983.66;;;7.50;100.00
43436;BME280;36399;51.444;-2.018;2023-03-12T03:48:41;99977.53;;;7.48;100.00
43436;BME280;36399;51.444;-2.018;2023-03-12T03:51:08;99973.22;;;7.50;100.00
43436;BME280;36399;51.444;-2.018;2023-03-12T03:53:34;99959.41;;;7.57;100.00
43436;BME280;36399;51.444;-2.018;2023-03-12T03:56:08;99948.97;;;7.59;100.00
43436;BME280;36399;51.444;-2.018;2023-03-12T03:58:34;99954.16;;;7.56;100.00
43436;BME280;36399;51.444;-2.018;2023-03-12T04:01:00;99952.41;;;7.56;100.00
43436;BME280;36399;51.444;-2.018;2023-03-12T04:03:26;99954.09;;;7.53;100.00
43436;BME280;36399;51.444;-2.018;2023-03-12T04:05:54;99956.50;;;7.41;100.00
43436;BME280;36399;51.444;-2.018;2023-03-12T04:08:20;99957.28;;;7.35;100.00
43436;BME280;36399;51.444;-2.018;2023-03-12T04:10:47;99968.56;;;7.33;100.00
43436;BME280;36399;51.444;-2.018;2023-03-12T04:13:13;99973.59;;;7.25;100.00
43436;BME280;36399;51.444;-2.018;2023-03-12T04:15:45;99978.06;;;7.29;100.00
43436;BME280;36399;51.444;-2.018;2023-03-12T04:18:11;99976.41;;;7.34;100.00
43436;BME280;36399;51.444;-2.018;2023-03-12T04:20:37;99986.81;;;7.31;100.00
43436;BME280;36399;51.444;-2.018;2023-03-12T04:23:03;99992.13;;;7.37;100.00
43436;BME280;36399;51.444;-2.018;2023-03-12T04:25:29;99992.91;;;7.32;100.00
43436;BME280;36399;51.444;-2.018;2023-03-12T04:27:55;100003.41;;;7.35;100.00
43436;BME280;36399;51.444;-2.018;2023-03-12T04:30:21;100002.66;;;7.42;100.00
43436;BME280;36399;51.444;-2.018;2023-03-12T04:32:47;100006.97;;;7.40;100.00
43436;BME280;36399;51.444;-2.018;2023-03-12T04:35:13;100007.00;;;7.41;100.00
43436;BME280;36399;51.444;-2.018;2023-03-12T04:37:39;100018.31;;;7.40;100.00
43436;BME280;36399;51.444;-2.018;2023-03-12T04:40:05;100025.34;;;7.44;100.00
43436;BME280;36399;51.444;-2.018;2023-03-12T04:42:34;100015.72;;;7.42;100.00
43436;BME280;36399;51.444;-2.018;2023-03-12T04:45:00;100016.66;;;7.45;100.00
43436;BME280;36399;51.444;-2.018;2023-03-12T04:47:26;100011.41;;;7.44;100.00
43436;BME280;36399;51.444;-2.018;2023-03-12T04:49:52;100008.78;;;7.44;100.00
43436;BME280;36399;51.444;-2.018;2023-03-12T04:52:18;100000.78;;;7.33;100.00
43436;BME280;36399;51.444;-2.018;2023-03-12T04:54:44;99996.25;;;7.26;100.00
43436;BME280;36399;51.444;-2.018;2023-03-12T04:57:10;99993.59;;;7.23;100.00
43436;BME280;36399;51.444;-2.018;2023-03-12T04:59:36;100002.28;;;7.22;100.00
43436;BME280;36399;51.444;-2.018;2023-03-12T05:02:02;99997.09;;;7.25;100.00
43436;BME280;36399;51.444;-2.018;2023-03-12T05:04:28;99995.34;;;7.24;100.00
43436;BME280;36399;51.444;-2.018;2023-03-12T05:06:54;99997.09;;;7.25;100.00
43436;BME280;36399;51.444;-2.018;2023-03-12T05:09:19;99991.84;;;7.22;100.00
43436;BME280;36399;51.444;-2.018;2023-03-12T05:11:46;99991.75;;;7.17;100.00
43436;BME280;36399;51.444;-2.018;2023-03-12T05:14:12;99993.41;;;7.14;100.00
43436;BME280;36399;51.444;-2.018;2023-03-12T05:16:38;99996.94;;;7.16;100.00
43436;BME280;36399;51.444;-2.018;2023-03-12T05:19:04;100000.50;;;7.21;100.00
43436;BME280;36399;51.444;-2.018;2023-03-12T05:21:30;99979.59;;;7.19;100.00
43436;BME280;36399;51.444;-2.018;2023-03-12T05:23:57;99979.53;;;7.15;100.00
43436;BME280;36399;51.444;-2.018;2023-03-12T05:26:28;99972.47;;;7.09;100.00
43436;BME280;36399;51.444;-2.018;2023-03-12T05:28:56;99979.34;;;7.06;100.00
43436;BME280;36399;51.444;-2.018;2023-03-12T05:31:22;99988.97;;;7.08;100.00
43436;BME280;36399;51.444;-2.018;2023-03-12T05:33:49;99993.38;;;7.11;100.00
43436;BME280;36399;51.444;-2.018;2023-03-12T05:36:16;99992.66;;;7.19;100.00
43436;BME280;36399;51.444;-2.018;2023-03-12T05:38:43;99991.94;;;7.28;100.00
43436;BME280;36399;51.444;-2.018;2023-03-12T05:41:18;100002.31;;;7.25;100.00
43436;BME280;36399;51.444;-2.018;2023-03-12T05:43:44;100004.22;;;7.32;100.00
43436;BME280;36399;51.444;-2.018;2023-03-12T05:46:10;100008.75;;;7.41;100.00
43436;BME280;36399;51.444;-2.018;2023-03-12T05:48:36;100004.34;;;7.38;100.00
43436;BME280;36399;51.444;-2.018;2023-03-12T05:51:02;99995.63;;;7.38;100.00
43436;BME280;36399;51.444;-2.018;2023-03-12T05:53:28;99987.81;;;7.39;100.00
43436;BME280;36399;51.444;-2.018;2023-03-12T05:55:54;100013.88;;;7.36;100.00
43436;BME280;36399;51.444;-2.018;2023-03-12T05:58:26;100030.19;;;7.26;100.00
43436;BME280;36399;51.444;-2.018;2023-03-12T06:00:52;100033.53;;;7.19;100.00
43436;BME280;36399;51.444;-2.018;2023-03-12T06:03:18;100046.47;;;7.13;100.00
43436;BME280;36399;51.444;-2.018;2023-03-12T06:05:44;100043.94;;;7.16;100.00
43436;BME280;36399;51.444;-2.018;2023-03-12T06:08:12;100047.38;;;7.15;100.00
43436;BME280;36399;51.444;-2.018;2023-03-12T06:10:38;100045.81;;;7.23;100.00
43436;BME280;36399;51.444;-2.018;2023-03-12T06:13:04;100039.72;;;7.24;100.00
43436;BME280;36399;51.444;-2.018;2023-03-12T06:15:31;100059.72;;;7.22;100.00
43436;BME280;36399;51.444;-2.018;2023-03-12T06:17:57;100050.91;;;7.17;100.00
43436;BME280;36399;51.444;-2.018;2023-03-12T06:20:23;100049.13;;;7.14;100.00
43436;BME280;36399;51.444;-2.018;2023-03-12T06:22:49;100051.06;;;7.24;100.00
43436;BME280;36399;51.444;-2.018;2023-03-12T06:25:15;100047.63;;;7.27;100.00
43436;BME280;36399;51.444;-2.018;2023-03-12T06:27:41;100031.94;;;7.27;100.00
43436;BME280;36399;51.444;-2.018;2023-03-12T06:30:08;100032.81;;;7.26;100.00
43436;BME280;36399;51.444;-2.018;2023-03-12T06:32:34;100024.06;;;7.24;100.00
43436;BME280;36399;51.444;-2.018;2023-03-12T06:35:00;100020.59;;;7.25;100.00
43436;BME280;36399;51.444;-2.018;2023-03-12T06:37:27;100024.09;;;7.25;100.00
43436;BME280;36399;51.444;-2.018;2023-03-12T06:39:53;100038.94;;;7.28;100.00
43436;BME280;36399;51.444;-2.018;2023-03-12T06:42:19;100026.09;;;7.37;100.00
43436;BME280;36399;51.444;-2.018;2023-03-12T06:44:45;100022.63;;;7.38;100.00
43436;BME280;36399;51.444;-2.018;2023-03-12T06:47:11;100014.00;;;7.42;100.00
43436;BME280;36399;51.444;-2.018;2023-03-12T06:49:37;100023.59;;;7.43;100.00
43436;BME280;36399;51.444;-2.018;2023-03-12T06:52:04;100025.41;;;7.47;100.00
43436;BME280;36399;51.444;-2.018;2023-03-12T06:54:30;100011.59;;;7.54;100.00
43436;BME280;36399;51.444;-2.018;2023-03-12T06:56:56;100009.03;;;7.57;100.00
43436;BME280;36399;51.444;-2.018;2023-03-12T06:59:25;100002.06;;;7.58;100.00
43436;BME280;36399;51.444;-2.018;2023-03-12T07:01:54;100004.72;;;7.59;100.00
43436;BME280;36399;51.444;-2.018;2023-03-12T07:04:23;99999.59;;;7.66;100.00
43436;BME280;36399;51.444;-2.018;2023-03-12T07:06:48;99988.44;;;7.76;100.00
43436;BME280;36399;51.444;-2.018;2023-03-12T07:09:17;99991.09;;;7.79;100.00
43436;BME280;36399;51.444;-2.018;2023-03-12T07:11:43;99993.03;;;7.89;100.00
43436;BME280;36399;51.444;-2.018;2023-03-12T07:14:09;99987.03;;;7.95;100.00
43436;BME280;36399;51.444;-2.018;2023-03-12T07:16:34;99988.78;;;7.96;100.00
43436;BME280;36399;51.444;-2.018;2023-03-12T07:19:00;100002.84;;;8.04;100.00
43436;BME280;36399;51.444;-2.018;2023-03-12T07:21:26;100001.19;;;8.09;100.00
43436;BME280;36399;51.444;-2.018;2023-03-12T07:23:52;100003.91;;;8.16;100.00
43436;BME280;36399;51.444;-2.018;2023-03-12T07:26:19;100003.81;;;8.10;100.00
43436;BME280;36399;51.444;-2.018;2023-03-12T07:28:45;100010.75;;;8.08;100.00
43436;BME280;36399;51.444;-2.018;2023-03-12T07:31:11;100008.13;;;8.07;100.00
43436;BME280;36399;51.444;-2.018;2023-03-12T07:33:37;100008.06;;;8.04;100.00
43436;BME280;36399;51.444;-2.018;2023-03-12T07:36:03;100008.94;;;8.04;100.00
43436;BME280;36399;51.444;-2.018;2023-03-12T07:38:30;100021.31;;;8.14;100.00
43436;BME280;36399;51.444;-2.018;2023-03-12T07:40:57;100014.44;;;8.22;100.00
43436;BME280;36399;51.444;-2.018;2023-03-12T07:43:23;100010.16;;;8.28;100.00
43436;BME280;36399;51.444;-2.018;2023-03-12T07:45:49;100023.47;;;8.40;100.00
43436;BME280;36399;51.444;-2.018;2023-03-12T07:48:16;100030.59;;;8.48;100.00
43436;BME280;36399;51.444;-2.018;2023-03-12T07:50:44;100031.41;;;8.46;100.00
43436;BME280;36399;51.444;-2.018;2023-03-12T07:53:10;100025.31;;;8.47;100.00
43436;BME280;36399;51.444;-2.018;2023-03-12T07:55:36;100025.28;;;8.44;100.00
43436;BME280;36399;51.444;-2.018;2023-03-12T07:58:03;100026.25;;;8.50;100.00
43436;BME280;36399;51.444;-2.018;2023-03-12T08:00:29;100022.78;;;8.53;100.00
43436;BME280;36399;51.444;-2.018;2023-03-12T08:02:55;100024.63;;;8.59;100.00
43436;BME280;36399;51.444;-2.018;2023-03-12T08:05:21;100025.56;;;8.65;100.00
43436;BME280;36399;51.444;-2.018;2023-03-12T08:07:50;100028.41;;;8.83;100.00
43436;BME280;36399;51.444;-2.018;2023-03-12T08:10:18;100026.88;;;8.98;100.00
43436;BME280;36399;51.444;-2.018;2023-03-12T08:12:44;100027.72;;;8.94;100.00
43436;BME280;36399;51.444;-2.018;2023-03-12T08:15:12;100039.13;;;8.99;100.00
43436;BME280;36399;51.444;-2.018;2023-03-12T08:17:38;100038.38;;;9.10;100.00
43436;BME280;36399;51.444;-2.018;2023-03-12T08:20:05;100035.84;;;9.20;100.00
43436;BME280;36399;51.444;-2.018;2023-03-12T08:22:38;100038.44;;;9.15;100.00
43436;BME280;36399;51.444;-2.018;2023-03-12T08:25:05;100028.81;;;9.14;100.00
43436;BME280;36399;51.444;-2.018;2023-03-12T08:27:31;100035.91;;;9.23;100.00
43436;BME280;36399;51.444;-2.018;2023-03-12T08:29:58;100036.97;;;9.38;100.00
43436;BME280;36399;51.444;-2.018;2023-03-12T08:32:24;100033.66;;;9.56;100.00
43436;BME280;36399;51.444;-2.018;2023-03-12T08:34:50;100020.56;;;9.58;100.00
43436;BME280;36399;51.444;-2.018;2023-03-12T08:37:16;100026.78;;;9.69;100.00
43436;BME280;36399;51.444;-2.018;2023-03-12T08:39:42;100002.34;;;9.73;100.00
43436;BME280;36399;51.444;-2.018;2023-03-12T08:42:08;100030.31;;;9.74;100.00
43436;BME280;36399;51.444;-2.018;2023-03-12T08:44:34;100024.81;;;9.46;100.00
43436;BME280;36399;51.444;-2.018;2023-03-12T08:47:00;100026.53;;;9.43;100.00
43436;BME280;36399;51.444;-2.018;2023-03-12T08:49:26;100031.81;;;9.47;100.00
43436;BME280;36399;51.444;-2.018;2023-03-12T08:51:52;100027.44;;;9.45;100.00
43436;BME280;36399;51.444;-2.018;2023-03-12T08:54:19;100040.44;;;9.37;100.00
43436;BME280;36399;51.444;-2.018;2023-03-12T08:56:48;100033.25;;;9.21;100.00
43436;BME280;36399;51.444;-2.018;2023-03-12T08:59:17;100032.28;;;9.11;100.00
43436;BME280;36399;51.444;-2.018;2023-03-12T09:01:43;100029.53;;;9.01;100.00
43436;BME280;36399;51.444;-2.018;2023-03-12T09:04:09;100022.53;;;9.00;100.00
43436;BME280;36399;51.444;-2.018;2023-03-12T09:06:35;100026.13;;;9.08;100.00
43436;BME280;36399;51.444;-2.018;2023-03-12T09:09:03;100028.75;;;9.08;100.00
43436;BME280;36399;51.444;-2.018;2023-03-12T09:11:33;100019.38;;;9.28;100.00
43436;BME280;36399;51.444;-2.018;2023-03-12T09:14:00;100012.50;;;9.38;100.00
43436;BME280;36399;51.444;-2.018;2023-03-12T09:16:27;100009.19;;;9.54;100.00
43436;BME280;36399;51.444;-2.018;2023-03-12T09:18:53;100007.50;;;9.61;100.00
43436;BME280;36399;51.444;-2.018;2023-03-12T09:21:19;99997.84;;;9.58;100.00
43436;BME280;36399;51.444;-2.018;2023-03-12T09:23:45;100008.59;;;9.87;100.00
43436;BME280;36399;51.444;-2.018;2023-03-12T09:26:12;99996.25;;;9.75;100.00
43436;BME280;36399;51.444;-2.018;2023-03-12T09:28:38;99986.69;;;9.79;100.00
43436;BME280;36399;51.444;-2.018;2023-03-12T09:31:05;99982.34;;;9.82;100.00
43436;BME280;36399;51.444;-2.018;2023-03-12T09:33:32;99976.34;;;9.97;100.00
43436;BME280;36399;51.444;-2.018;2023-03-12T09:36:00;99969.44;;;10.08;100.00
43436;BME280;36399;51.444;-2.018;2023-03-12T09:38:27;99970.59;;;10.46;100.00
43436;BME280;36399;51.444;-2.018;2023-03-12T09:40:53;99961.06;;;10.70;100.00
43436;BME280;36399;51.444;-2.018;2023-03-12T09:43:39;99941.94;;;11.03;100.00
43436;BME280;36399;51.444;-2.018;2023-03-12T09:46:19;99925.34;;;11.44;100.00
43436;BME280;36399;51.444;-2.018;2023-03-12T09:48:47;99921.00;;;11.60;100.00
43436;BME280;36399;51.444;-2.018;2023-03-12T09:51:19;99913.97;;;11.76;100.00
43436;BME280;36399;51.444;-2.018;2023-03-12T09:53:50;99912.25;;;12.07;100.00
43436;BME280;36399;51.444;-2.018;2023-03-12T09:56:19;99914.88;;;11.61;100.00
43436;BME280;36399;51.444;-2.018;2023-03-12T09:58:46;99924.50;;;11.73;100.00
43436;BME280;36399;51.444;-2.018;2023-03-12T10:01:41;99912.16;;;12.34;100.00
43436;BME280;36399;51.444;-2.018;2023-03-12T10:06:43;99911.13;;;12.73;100.00
43436;BME280;36399;51.444;-2.018;2023-03-12T10:23:05;99898.94;;;12.57;100.00
43436;BME280;36399;51.444;-2.018;2023-03-12T10:25:41;99896.88;;;13.17;100.00
43436;BME280;36399;51.444;-2.018;2023-03-12T10:28:17;99892.22;;;13.54;100.00
43436;BME280;36399;51.444;-2.018;2023-03-12T10:30:52;99881.66;;;13.52;100.00
43436;BME280;36399;51.444;-2.018;2023-03-12T10:33:20;99876.84;;;12.84;100.00
43436;BME280;36399;51.444;-2.018;2023-03-12T10:35:49;99844.88;;;13.36;100.00
43436;BME280;36399;51.444;-2.018;2023-03-12T10:38:21;99872.31;;;13.06;100.00
43436;BME280;36399;51.444;-2.018;2023-03-12T10:40:50;99868.84;;;12.98;100.00
43436;BME280;36399;51.444;-2.018;2023-03-12T10:43:16;99865.41;;;12.88;100.00
43436;BME280;36399;51.444;-2.018;2023-03-12T10:46:00;99853.59;;;13.44;100.00
43436;BME280;36399;51.444;-2.018;2023-03-12T10:48:31;99862.44;;;13.40;100.00
43436;BME280;36399;51.444;-2.018;2023-03-12T10:53:33;99858.34;;;13.99;100.00
43436;BME280;36399;51.444;-2.018;2023-03-12T10:56:14;99849.78;;;13.78;100.00
43436;BME280;36399;51.444;-2.018;2023-03-12T10:58:43;99851.75;;;13.58;100.00
43436;BME280;36399;51.444;-2.018;2023-03-12T11:03:42;99837.06;;;14.17;100.00
43436;BME280;36399;51.444;-2.018;2023-03-12T11:06:09;99847.00;;;14.69;100.00
43436;BME280;36399;51.444;-2.018;2023-03-12T11:09:22;99819.69;;;13.96;100.00
43436;BME280;36399;51.444;-2.018;2023-03-12T11:11:48;99828.66;;;13.81;100.00
43436;BME280;36399;51.444;-2.018;2023-03-12T11:14:19;99824.47;;;14.37;100.00
43436;BME280;36399;51.444;-2.018;2023-03-12T11:16:46;99827.53;;;14.01;100.00
43436;BME280;36399;51.444;-2.018;2023-03-12T11:19:14;99826.59;;;14.78;100.00
43436;BME280;36399;51.444;-2.018;2023-03-12T11:22:05;99818.09;;;14.57;100.00
43436;BME280;36399;51.444;-2.018;2023-03-12T11:24:33;99830.38;;;14.61;100.00
43436;BME280;36399;51.444;-2.018;2023-03-12T11:30:05;99822.25;;;14.02;100.00
43436;BME280;36399;51.444;-2.018;2023-03-12T11:32:42;99819.59;;;14.04;100.00
43436;BME280;36399;51.444;-2.018;2023-03-12T11:35:16;99828.72;;;13.75;100.00
43436;BME280;36399;51.444;-2.018;2023-03-12T11:43:23;99832.47;;;14.33;100.00
43436;BME280;36399;51.444;-2.018;2023-03-12T11:53:54;99841.56;;;14.04;100.00
43436;BME280;36399;51.444;-2.018;2023-03-12T11:56:44;99831.03;;;14.03;100.00
43436;BME280;36399;51.444;-2.018;2023-03-12T12:04:50;99829.25;;;14.08;100.00
43436;BME280;36399;51.444;-2.018;2023-03-12T12:20:49;99793.31;;;15.24;100.00
43436;BME280;36399;51.444;-2.018;2023-03-12T12:23:33;99804.34;;;15.47;100.00
43436;BME280;36399;51.444;-2.018;2023-03-12T12:26:05;99771.00;;;15.38;100.00
43436;BME280;36399;51.444;-2.018;2023-03-12T12:28:52;99795.88;;;14.73;100.00
43436;BME280;36399;51.444;-2.018;2023-03-12T12:36:43;99779.75;;;15.91;100.00
43436;BME280;36399;51.444;-2.018;2023-03-12T12:39:36;99777.31;;;16.25;100.00
43436;BME280;36399;51.444;-2.018;2023-03-12T12:42:07;99786.63;;;15.52;100.00
43436;BME280;36399;51.444;-2.018;2023-03-12T12:44:47;99768.75;;;16.53;100.00
43436;BME280;36399;51.444;-2.018;2023-03-12T12:47:18;99775.25;;;16.38;100.00
43436;BME280;36399;51.444;-2.018;2023-03-12T12:49:50;99792.19;;;16.31;100.00
43436;BME280;36399;51.444;-2.018;2023-03-12T12:52:20;99778.09;;;15.86;100.00
43436;BME280;36399;51.444;-2.018;2023-03-12T12:55:11;99775.53;;;15.83;100.00
43436;BME280;36399;51.444;-2.018;2023-03-12T12:57:44;99774.84;;;15.71;100.00
43436;BME280;36399;51.444;-2.018;2023-03-12T13:00:33;99784.66;;;15.66;100.00
43436;BME280;36399;51.444;-2.018;2023-03-12T13:03:02;99775.78;;;14.61;100.00
43436;BME280;36399;51.444;-2.018;2023-03-12T13:08:02;99778.53;;;14.52;100.00
43436;BME280;36399;51.444;-2.018;2023-03-12T13:12:59;99759.03;;;14.64;100.00
43436;BME280;36399;51.444;-2.018;2023-03-12T13:18:07;99748.34;;;14.05;100.00
43436;BME280;36399;51.444;-2.018;2023-03-12T13:20:45;99742.00;;;14.20;100.00
43436;BME280;36399;51.444;-2.018;2023-03-12T13:23:40;99727.84;;;14.24;100.00
43436;BME280;36399;51.444;-2.018;2023-03-12T13:36:35;99738.31;;;13.60;100.00
43436;BME280;36399;51.444;-2.018;2023-03-12T13:41:35;99735.56;;;13.70;100.00
43436;BME280;36399;51.444;-2.018;2023-03-12T13:49:24;99735.50;;;12.81;100.00
43436;BME280;36399;51.444;-2.018;2023-03-12T13:54:31;99733.81;;;12.71;100.00
43436;BME280;36399;51.444;-2.018;2023-03-12T13:57:01;99741.84;;;12.48;100.00
43436;BME280;36399;51.444;-2.018;2023-03-12T13:59:28;99737.59;;;12.27;100.00
43436;BME280;36399;51.444;-2.018;2023-03-12T14:01:59;99732.31;;;12.30;100.00
43436;BME280;36399;51.444;-2.018;2023-03-12T14:04:33;99733.19;;;12.29;100.00
43436;BME280;36399;51.444;-2.018;2023-03-12T14:07:27;99744.56;;;12.38;100.00
43436;BME280;36399;51.444;-2.018;2023-03-12T14:10:14;99716.56;;;12.27;100.00
43436;BME280;36399;51.444;-2.018;2023-03-12T14:12:59;99694.47;;;12.48;100.00
43436;BME280;36399;51.444;-2.018;2023-03-12T14:15:48;99702.31;;;12.57;100.00
43436;BME280;36399;51.444;-2.018;2023-03-12T14:18:26;99685.72;;;12.46;100.00
43436;BME280;36399;51.444;-2.018;2023-03-12T14:20:57;99694.69;;;12.15;100.00
43436;BME280;36399;51.444;-2.018;2023-03-12T14:23:27;99696.38;;;12.25;100.00
43436;BME280;36399;51.444;-2.018;2023-03-12T14:25:57;99706.91;;;12.25;100.00